Terminal Aerodrome Forecast
Issued by NWS

Home | Current Version | Previous Version | Text Only | Print | Product List | Glossary On
Versions: 1 2 3 4 5 6 7 8 9 10 11 12 13 14 15 16 17 18 19 20 21 22 23 24 25 26
000
FTUS43 KGLD 212332
TAFMCK
TAF
KMCK 212332Z 2200/2224 02021G31KT 1/4SM +SN BLSN OVC005
     FM220500 35026G36KT 1/2SM SN BLSN OVC008
      TEMPO 2205/2209 OVC003
     FM221100 33029G38KT 1SM BLSN VCSH OVC020
     FM221500 32023G31KT 2SM BLSN VCSH BKN045
     FM221600 32022G31KT 2SM BLSN BKN060
     FM221700 32022G30KT 3SM BLSN BKN090
     FM221800 32022G30KT 6SM BLSN SCT200
     FM221900 32021G29KT P6SM SCT200=

USA.gov is the U.S. government's official web portal to all federal, state and local government web resources and services.